sensor_id;sensor_type;location;lat;lon;timestamp;temperature;humidity
37242;DHT22;23135;51.078;12.108;2022-09-27T00:00:39;11.40;99.90
37242;DHT22;23135;51.078;12.108;2022-09-27T00:03:09;11.50;99.90
37242;DHT22;23135;51.078;12.108;2022-09-27T00:05:34;11.40;99.90
37242;DHT22;23135;51.078;12.108;2022-09-27T00:08:00;11.50;99.90
37242;DHT22;23135;51.078;12.108;2022-09-27T00:10:26;11.50;99.90
37242;DHT22;23135;51.078;12.108;2022-09-27T00:12:53;11.50;99.90
37242;DHT22;23135;51.078;12.108;2022-09-27T00:15:19;11.50;99.90
37242;DHT22;23135;51.078;12.108;2022-09-27T00:17:45;11.50;99.90
37242;DHT22;23135;51.078;12.108;2022-09-27T00:20:11;11.50;99.90
37242;DHT22;23135;51.078;12.108;2022-09-27T00:22:38;11.50;99.90
37242;DHT22;23135;51.078;12.108;2022-09-27T00:25:03;11.60;99.90
37242;DHT22;23135;51.078;12.108;2022-09-27T00:27:32;11.60;99.90
37242;DHT22;23135;51.078;12.108;2022-09-27T00:29:57;11.60;99.90
37242;DHT22;23135;51.078;12.108;2022-09-27T00:32:23;11.60;99.90
37242;DHT22;23135;51.078;12.108;2022-09-27T00:34:48;11.70;99.90
37242;DHT22;23135;51.078;12.108;2022-09-27T00:37:14;11.70;99.90
37242;DHT22;23135;51.078;12.108;2022-09-27T00:39:39;11.70;99.90
37242;DHT22;23135;51.078;12.108;2022-09-27T00:42:08;11.70;99.90
37242;DHT22;23135;51.078;12.108;2022-09-27T00:52:16;11.70;99.90
37242;DHT22;23135;51.078;12.108;2022-09-27T00:54:46;11.60;99.90
37242;DHT22;23135;51.078;12.108;2022-09-27T00:57:12;11.60;99.90
37242;DHT22;23135;51.078;12.108;2022-09-27T00:59:45;11.60;99.90
37242;DHT22;23135;51.078;12.108;2022-09-27T01:02:12;11.60;99.90
37242;DHT22;23135;51.078;12.108;2022-09-27T01:04:38;11.60;99.90
37242;DHT22;23135;51.078;12.108;2022-09-27T01:07:05;11.60;99.90
37242;DHT22;23135;51.078;12.108;2022-09-27T01:09:31;11.60;99.90
37242;DHT22;23135;51.078;12.108;2022-09-27T01:12:25;11.50;99.90
37242;DHT22;23135;51.078;12.108;2022-09-27T01:18:04;11.50;99.90
37242;DHT22;23135;51.078;12.108;2022-09-27T01:37:06;11.20;99.90
37242;DHT22;23135;51.078;12.108;2022-09-27T01:42:27;11.20;99.90
37242;DHT22;23135;51.078;12.108;2022-09-27T01:45:09;11.20;99.90
37242;DHT22;23135;51.078;12.108;2022-09-27T01:47:46;11.20;99.90
37242;DHT22;23135;51.078;12.108;2022-09-27T01:50:22;11.10;99.90
37242;DHT22;23135;51.078;12.108;2022-09-27T01:52:56;11.10;99.90
37242;DHT22;23135;51.078;12.108;2022-09-27T01:55:29;11.10;99.90
37242;DHT22;23135;51.078;12.108;2022-09-27T01:58:00;11.10;99.90
37242;DHT22;23135;51.078;12.108;2022-09-27T02:00:27;11.10;99.90
37242;DHT22;23135;51.078;12.108;2022-09-27T02:03:05;11.10;99.90
37242;DHT22;23135;51.078;12.108;2022-09-27T02:05:38;11.00;99.90
37242;DHT22;23135;51.078;12.108;2022-09-27T02:08:16;11.00;99.90
37242;DHT22;23135;51.078;12.108;2022-09-27T02:10:44;11.00;99.90
37242;DHT22;23135;51.078;12.108;2022-09-27T02:13:41;11.00;99.90
37242;DHT22;23135;51.078;12.108;2022-09-27T02:22:15;11.10;99.90
37242;DHT22;23135;51.078;12.108;2022-09-27T02:24:57;11.00;99.90
37242;DHT22;23135;51.078;12.108;2022-09-27T02:27:27;11.00;99.90
37242;DHT22;23135;51.078;12.108;2022-09-27T02:30:04;10.90;99.90
37242;DHT22;23135;51.078;12.108;2022-09-27T02:32:30;10.90;99.90
37242;DHT22;23135;51.078;12.108;2022-09-27T02:35:00;10.90;99.90
37242;DHT22;23135;51.078;12.108;2022-09-27T02:37:26;10.80;99.90
37242;DHT22;23135;51.078;12.108;2022-09-27T02:39:52;10.70;99.90
37242;DHT22;23135;51.078;12.108;2022-09-27T02:42:17;10.70;99.90
37242;DHT22;23135;51.078;12.108;2022-09-27T02:44:44;10.60;99.90
37242;DHT22;23135;51.078;12.108;2022-09-27T02:47:17;10.60;99.90
37242;DHT22;23135;51.078;12.108;2022-09-27T02:52:48;10.50;99.90
37242;DHT22;23135;51.078;12.108;2022-09-27T02:55:35;10.50;99.90
37242;DHT22;23135;51.078;12.108;2022-09-27T03:03:35;10.40;99.90
37242;DHT22;23135;51.078;12.108;2022-09-27T03:06:06;10.40;99.90
37242;DHT22;23135;51.078;12.108;2022-09-27T03:08:32;10.40;99.90
37242;DHT22;23135;51.078;12.108;2022-09-27T03:10:58;10.40;99.90
37242;DHT22;23135;51.078;12.108;2022-09-27T03:13:24;10.40;99.90
37242;DHT22;23135;51.078;12.108;2022-09-27T03:15:50;10.30;99.90
37242;DHT22;23135;51.078;12.108;2022-09-27T03:18:15;10.30;99.90
37242;DHT22;23135;51.078;12.108;2022-09-27T03:20:41;10.30;99.90
37242;DHT22;23135;51.078;12.108;2022-09-27T03:23:06;10.20;99.90
37242;DHT22;23135;51.078;12.108;2022-09-27T03:25:32;10.20;99.90
37242;DHT22;23135;51.078;12.108;2022-09-27T03:27:57;10.20;99.90
37242;DHT22;23135;51.078;12.108;2022-09-27T03:30:23;10.10;99.90
37242;DHT22;23135;51.078;12.108;2022-09-27T03:32:49;10.10;99.90
37242;DHT22;23135;51.078;12.108;2022-09-27T03:35:14;10.10;99.90
37242;DHT22;23135;51.078;12.108;2022-09-27T03:37:40;10.10;99.90
37242;DHT22;23135;51.078;12.108;2022-09-27T03:40:06;10.00;99.90
37242;DHT22;23135;51.078;12.108;2022-09-27T03:42:32;10.00;99.90
37242;DHT22;23135;51.078;12.108;2022-09-27T03:44:57;10.00;99.90
37242;DHT22;23135;51.078;12.108;2022-09-27T03:47:23;10.00;99.90
37242;DHT22;23135;51.078;12.108;2022-09-27T03:49:48;10.00;99.90
37242;DHT22;23135;51.078;12.108;2022-09-27T03:52:14;10.00;99.90
37242;DHT22;23135;51.078;12.108;2022-09-27T03:54:43;9.90;99.90
37242;DHT22;23135;51.078;12.108;2022-09-27T03:57:08;10.00;99.90
37242;DHT22;23135;51.078;12.108;2022-09-27T03:59:34;9.90;99.90
37242;DHT22;23135;51.078;12.108;2022-09-27T04:01:59;9.90;99.90
37242;DHT22;23135;51.078;12.108;2022-09-27T04:04:25;9.90;99.90
37242;DHT22;23135;51.078;12.108;2022-09-27T04:06:50;9.90;99.90
37242;DHT22;23135;51.078;12.108;2022-09-27T04:09:16;9.90;99.90
37242;DHT22;23135;51.078;12.108;2022-09-27T04:11:41;9.90;99.90
37242;DHT22;23135;51.078;12.108;2022-09-27T04:14:07;9.90;99.90
37242;DHT22;23135;51.078;12.108;2022-09-27T04:16:33;9.90;99.90
37242;DHT22;23135;51.078;12.108;2022-09-27T04:18:59;9.90;99.90
37242;DHT22;23135;51.078;12.108;2022-09-27T04:21:26;9.80;99.90
37242;DHT22;23135;51.078;12.108;2022-09-27T04:23:52;9.90;99.90
37242;DHT22;23135;51.078;12.108;2022-09-27T04:26:17;9.90;99.90
37242;DHT22;23135;51.078;12.108;2022-09-27T04:28:43;9.80;99.90
37242;DHT22;23135;51.078;12.108;2022-09-27T04:31:08;9.80;99.90
37242;DHT22;23135;51.078;12.108;2022-09-27T04:33:34;9.80;99.90
37242;DHT22;23135;51.078;12.108;2022-09-27T04:35:59;9.80;99.90
37242;DHT22;23135;51.078;12.108;2022-09-27T04:38:43;9.80;99.90
37242;DHT22;23135;51.078;12.108;2022-09-27T04:41:09;9.80;99.90
37242;DHT22;23135;51.078;12.108;2022-09-27T04:43:34;9.90;99.90
37242;DHT22;23135;51.078;12.108;2022-09-27T04:46:00;9.90;99.90
37242;DHT22;23135;51.078;12.108;2022-09-27T04:48:26;9.90;99.90
37242;DHT22;23135;51.078;12.108;2022-09-27T04:50:59;9.90;99.90
37242;DHT22;23135;51.078;12.108;2022-09-27T04:53:27;9.80;99.90
37242;DHT22;23135;51.078;12.108;2022-09-27T04:55:54;9.90;99.90
37242;DHT22;23135;51.078;12.108;2022-09-27T04:58:20;9.90;99.90
37242;DHT22;23135;51.078;12.108;2022-09-27T05:00:46;9.90;99.90
37242;DHT22;23135;51.078;12.108;2022-09-27T05:03:12;9.90;99.90
37242;DHT22;23135;51.078;12.108;2022-09-27T05:05:39;9.90;99.90
37242;DHT22;23135;51.078;12.108;2022-09-27T05:08:05;9.90;99.90
37242;DHT22;23135;51.078;12.108;2022-09-27T05:10:31;9.90;99.90
37242;DHT22;23135;51.078;12.108;2022-09-27T05:12:56;9.90;99.90
37242;DHT22;23135;51.078;12.108;2022-09-27T05:15:22;9.90;99.90
37242;DHT22;23135;51.078;12.108;2022-09-27T05:17:50;10.00;99.90
37242;DHT22;23135;51.078;12.108;2022-09-27T05:20:16;9.90;99.90
37242;DHT22;23135;51.078;12.108;2022-09-27T05:22:42;10.00;99.90
37242;DHT22;23135;51.078;12.108;2022-09-27T05:25:08;10.00;99.90
37242;DHT22;23135;51.078;12.108;2022-09-27T05:27:33;10.00;99.90
37242;DHT22;23135;51.078;12.108;2022-09-27T05:29:59;10.00;99.90
37242;DHT22;23135;51.078;12.108;2022-09-27T05:32:28;10.00;99.90
37242;DHT22;23135;51.078;12.108;2022-09-27T05:34:53;10.00;99.90
37242;DHT22;23135;51.078;12.108;2022-09-27T05:37:19;10.00;99.90
37242;DHT22;23135;51.078;12.108;2022-09-27T05:39:45;10.00;99.90
37242;DHT22;23135;51.078;12.108;2022-09-27T05:42:11;10.00;99.90
37242;DHT22;23135;51.078;12.108;2022-09-27T05:44:40;10.00;99.90
37242;DHT22;23135;51.078;12.108;2022-09-27T05:47:05;10.10;99.90
37242;DHT22;23135;51.078;12.108;2022-09-27T05:49:32;10.00;99.90
37242;DHT22;23135;51.078;12.108;2022-09-27T05:51:58;10.10;99.90
37242;DHT22;23135;51.078;12.108;2022-09-27T05:54:23;10.00;99.90
37242;DHT22;23135;51.078;12.108;2022-09-27T05:56:49;10.10;99.90
37242;DHT22;23135;51.078;12.108;2022-09-27T05:59:15;10.10;99.90
37242;DHT22;23135;51.078;12.108;2022-09-27T06:01:41;10.00;99.90
37242;DHT22;23135;51.078;12.108;2022-09-27T06:04:06;10.00;99.90
37242;DHT22;23135;51.078;12.108;2022-09-27T06:06:35;10.10;99.90
37242;DHT22;23135;51.078;12.108;2022-09-27T06:09:01;10.10;99.90
37242;DHT22;23135;51.078;12.108;2022-09-27T06:11:27;10.10;99.90
37242;DHT22;23135;51.078;12.108;2022-09-27T06:13:53;10.10;99.90
37242;DHT22;23135;51.078;12.108;2022-09-27T06:16:18;10.10;99.90
37242;DHT22;23135;51.078;12.108;2022-09-27T06:18:44;10.10;99.90
37242;DHT22;23135;51.078;12.108;2022-09-27T06:21:10;10.10;99.90
37242;DHT22;23135;51.078;12.108;2022-09-27T06:23:35;10.20;99.90
37242;DHT22;23135;51.078;12.108;2022-09-27T06:26:03;10.20;99.90
37242;DHT22;23135;51.078;12.108;2022-09-27T06:28:29;10.20;99.90
37242;DHT22;23135;51.078;12.108;2022-09-27T06:30:55;10.20;99.90
37242;DHT22;23135;51.078;12.108;2022-09-27T06:33:21;10.30;99.90
37242;DHT22;23135;51.078;12.108;2022-09-27T06:35:47;10.30;99.90
37242;DHT22;23135;51.078;12.108;2022-09-27T06:38:15;10.30;99.90
37242;DHT22;23135;51.078;12.108;2022-09-27T06:40:42;10.30;99.90
37242;DHT22;23135;51.078;12.108;2022-09-27T06:43:13;10.30;99.90
37242;DHT22;23135;51.078;12.108;2022-09-27T06:45:39;10.30;99.90
37242;DHT22;23135;51.078;12.108;2022-09-27T06:48:06;10.30;99.90
37242;DHT22;23135;51.078;12.108;2022-09-27T06:50:35;10.30;99.90
37242;DHT22;23135;51.078;12.108;2022-09-27T06:53:02;10.30;99.90
37242;DHT22;23135;51.078;12.108;2022-09-27T06:55:27;10.30;99.90
37242;DHT22;23135;51.078;12.108;2022-09-27T06:57:57;10.30;99.90
37242;DHT22;23135;51.078;12.108;2022-09-27T07:00:42;10.30;99.90
37242;DHT22;23135;51.078;12.108;2022-09-27T07:03:09;10.30;99.90
37242;DHT22;23135;51.078;12.108;2022-09-27T07:05:36;10.30;99.90
37242;DHT22;23135;51.078;12.108;2022-09-27T07:08:02;10.40;99.90
37242;DHT22;23135;51.078;12.108;2022-09-27T07:10:31;10.50;99.90
37242;DHT22;23135;51.078;12.108;2022-09-27T07:13:06;10.50;99.90
37242;DHT22;23135;51.078;12.108;2022-09-27T07:15:36;10.50;99.90
37242;DHT22;23135;51.078;12.108;2022-09-27T07:18:03;10.50;99.90
37242;DHT22;23135;51.078;12.108;2022-09-27T07:20:29;10.60;99.90
37242;DHT22;23135;51.078;12.108;2022-09-27T07:22:56;10.60;99.90
37242;DHT22;23135;51.078;12.108;2022-09-27T07:25:23;10.60;99.90
37242;DHT22;23135;51.078;12.108;2022-09-27T07:27:49;10.60;99.90
37242;DHT22;23135;51.078;12.108;2022-09-27T07:30:17;10.60;99.90
37242;DHT22;23135;51.078;12.108;2022-09-27T07:32:43;10.60;99.90
37242;DHT22;23135;51.078;12.108;2022-09-27T07:35:09;10.60;99.90
37242;DHT22;23135;51.078;12.108;2022-09-27T07:37:36;10.60;99.90
37242;DHT22;23135;51.078;12.108;2022-09-27T07:40:04;10.60;99.90
37242;DHT22;23135;51.078;12.108;2022-09-27T07:42:32;10.60;99.90
37242;DHT22;23135;51.078;12.108;2022-09-27T07:44:57;10.50;99.90
37242;DHT22;23135;51.078;12.108;2022-09-27T07:47:23;10.50;99.90
37242;DHT22;23135;51.078;12.108;2022-09-27T07:49:50;10.50;99.90
37242;DHT22;23135;51.078;12.108;2022-09-27T07:52:19;10.50;99.90
37242;DHT22;23135;51.078;12.108;2022-09-27T07:54:46;10.50;99.90
37242;DHT22;23135;51.078;12.108;2022-09-27T07:57:12;10.50;99.90
37242;DHT22;23135;51.078;12.108;2022-09-27T07:59:38;10.50;99.90
37242;DHT22;23135;51.078;12.108;2022-09-27T08:02:04;10.50;99.90
37242;DHT22;23135;51.078;12.108;2022-09-27T08:04:29;10.50;99.90
37242;DHT22;23135;51.078;12.108;2022-09-27T08:06:55;10.50;99.90
37242;DHT22;23135;51.078;12.108;2022-09-27T08:09:20;10.50;99.90
37242;DHT22;23135;51.078;12.108;2022-09-27T08:11:46;10.70;99.90
37242;DHT22;23135;51.078;12.108;2022-09-27T08:14:13;10.80;99.90
37242;DHT22;23135;51.078;12.108;2022-09-27T08:16:39;10.80;99.90
37242;DHT22;23135;51.078;12.108;2022-09-27T08:19:06;10.90;99.90
37242;DHT22;23135;51.078;12.108;2022-09-27T08:21:31;11.00;99.90
37242;DHT22;23135;51.078;12.108;2022-09-27T08:23:57;11.10;99.90
37242;DHT22;23135;51.078;12.108;2022-09-27T08:26:23;11.00;99.90
37242;DHT22;23135;51.078;12.108;2022-09-27T08:28:51;11.10;99.90
37242;DHT22;23135;51.078;12.108;2022-09-27T08:31:17;11.10;99.90
37242;DHT22;23135;51.078;12.108;2022-09-27T08:33:42;11.30;99.90
37242;DHT22;23135;51.078;12.108;2022-09-27T08:36:11;11.30;99.90
37242;DHT22;23135;51.078;12.108;2022-09-27T08:38:37;11.30;99.90
37242;DHT22;23135;51.078;12.108;2022-09-27T08:41:14;11.30;99.90
37242;DHT22;23135;51.078;12.108;2022-09-27T08:49:08;11.20;99.90
37242;DHT22;23135;51.078;12.108;2022-09-27T08:51:35;11.30;99.90
37242;DHT22;23135;51.078;12.108;2022-09-27T08:54:13;11.20;99.90
37242;DHT22;23135;51.078;12.108;2022-09-27T08:56:39;11.10;99.90
37242;DHT22;23135;51.078;12.108;2022-09-27T08:59:27;11.00;99.90
37242;DHT22;23135;51.078;12.108;2022-09-27T09:01:54;10.90;99.90
37242;DHT22;23135;51.078;12.108;2022-09-27T09:04:33;10.80;99.90
37242;DHT22;23135;51.078;12.108;2022-09-27T09:12:32;10.70;99.90
37242;DHT22;23135;51.078;12.108;2022-09-27T09:18:18;10.90;99.90
37242;DHT22;23135;51.078;12.108;2022-09-27T09:35:14;11.20;99.90
37242;DHT22;23135;51.078;12.108;2022-09-27T09:37:50;11.20;99.90
37242;DHT22;23135;51.078;12.108;2022-09-27T09:40:40;11.20;99.90
37242;DHT22;23135;51.078;12.108;2022-09-27T09:43:31;11.20;99.90
37242;DHT22;23135;51.078;12.108;2022-09-27T09:48:58;11.40;99.90
37242;DHT22;23135;51.078;12.108;2022-09-27T09:51:32;11.50;99.90
37242;DHT22;23135;51.078;12.108;2022-09-27T09:54:18;11.60;99.90
37242;DHT22;23135;51.078;12.108;2022-09-27T09:56:50;11.70;99.90
37242;DHT22;23135;51.078;12.108;2022-09-27T09:59:26;11.70;99.90
37242;DHT22;23135;51.078;12.108;2022-09-27T10:01:53;11.70;99.90
37242;DHT22;23135;51.078;12.108;2022-09-27T10:04:25;11.70;99.90
37242;DHT22;23135;51.078;12.108;2022-09-27T10:06:58;11.60;99.90
37242;DHT22;23135;51.078;12.108;2022-09-27T10:09:26;11.60;99.90
37242;DHT22;23135;51.078;12.108;2022-09-27T10:11:52;11.60;99.90
37242;DHT22;23135;51.078;12.108;2022-09-27T10:14:19;11.50;99.90
37242;DHT22;23135;51.078;12.108;2022-09-27T10:16:48;11.50;99.90
37242;DHT22;23135;51.078;12.108;2022-09-27T10:19:17;11.40;99.90
37242;DHT22;23135;51.078;12.108;2022-09-27T10:21:47;11.40;99.90
37242;DHT22;23135;51.078;12.108;2022-09-27T10:24:16;11.40;99.90
37242;DHT22;23135;51.078;12.108;2022-09-27T10:26:45;11.20;99.90
37242;DHT22;23135;51.078;12.108;2022-09-27T10:29:24;11.10;99.90
37242;DHT22;23135;51.078;12.108;2022-09-27T10:31:53;11.00;99.90
37242;DHT22;23135;51.078;12.108;2022-09-27T10:34:26;11.00;99.90
37242;DHT22;23135;51.078;12.108;2022-09-27T10:37:21;10.90;99.90
37242;DHT22;23135;51.078;12.108;2022-09-27T10:39:48;10.80;99.90
37242;DHT22;23135;51.078;12.108;2022-09-27T10:42:31;10.60;99.90
37242;DHT22;23135;51.078;12.108;2022-09-27T10:45:19;10.50;99.90
37242;DHT22;23135;51.078;12.108;2022-09-27T10:47:43;10.50;99.90
37242;DHT22;23135;51.078;12.108;2022-09-27T10:50:16;10.50;99.90
37242;DHT22;23135;51.078;12.108;2022-09-27T10:52:42;10.50;99.90
37242;DHT22;23135;51.078;12.108;2022-09-27T10:55:22;10.50;99.90
37242;DHT22;23135;51.078;12.108;2022-09-27T10:57:53;10.50;99.90
37242;DHT22;23135;51.078;12.108;2022-09-27T11:00:30;10.50;99.90
37242;DHT22;23135;51.078;12.108;2022-09-27T11:03:00;10.50;99.90
37242;DHT22;23135;51.078;12.108;2022-09-27T11:05:33;10.50;99.90
37242;DHT22;23135;51.078;12.108;2022-09-27T11:08:24;10.50;99.90
37242;DHT22;23135;51.078;12.108;2022-09-27T11:11:04;10.60;99.90
37242;DHT22;23135;51.078;12.108;2022-09-27T11:13:31;10.60;99.90
37242;DHT22;23135;51.078;12.108;2022-09-27T11:16:20;10.70;99.90
37242;DHT22;23135;51.078;12.108;2022-09-27T11:19:41;10.70;99.90
37242;DHT22;23135;51.078;12.108;2022-09-27T11:24:24;11.00;99.90
37242;DHT22;23135;51.078;12.108;2022-09-27T11:30:09;11.20;99.90
37242;DHT22;23135;51.078;12.108;2022-09-27T11:35:31;11.40;99.90
37242;DHT22;23135;51.078;12.108;2022-09-27T12:05:24;11.50;99.90
37242;DHT22;23135;51.078;12.108;2022-09-27T12:08:17;11.70;99.90
37242;DHT22;23135;51.078;12.108;2022-09-27T12:10:53;12.00;99.90
37242;DHT22;23135;51.078;12.108;2022-09-27T12:13:33;12.20;99.90
37242;DHT22;23135;51.078;12.108;2022-09-27T12:16:01;12.40;99.90
37242;DHT22;23135;51.078;12.108;2022-09-27T12:18:31;12.50;99.90
37242;DHT22;23135;51.078;12.108;2022-09-27T12:21:03;12.40;99.90
37242;DHT22;23135;51.078;12.108;2022-09-27T12:23:42;12.20;99.90
37242;DHT22;23135;51.078;12.108;2022-09-27T12:26:19;12.00;99.90
37242;DHT22;23135;51.078;12.108;2022-09-27T12:28:56;11.70;99.90
37242;DHT22;23135;51.078;12.108;2022-09-27T12:31:29;11.50;99.90
37242;DHT22;23135;51.078;12.108;2022-09-27T12:34:16;11.40;99.90
37242;DHT22;23135;51.078;12.108;2022-09-27T12:36:50;11.40;99.90
37242;DHT22;23135;51.078;12.108;2022-09-27T12:39:22;11.40;99.90
37242;DHT22;23135;51.078;12.108;2022-09-27T12:42:00;11.30;99.90
37242;DHT22;23135;51.078;12.108;2022-09-27T12:44:42;11.20;99.90
37242;DHT22;23135;51.078;12.108;2022-09-27T12:47:39;11.10;99.90
37242;DHT22;23135;51.078;12.108;2022-09-27T12:50:27;10.70;99.90
37242;DHT22;23135;51.078;12.108;2022-09-27T12:53:00;10.50;99.90
37242;DHT22;23135;51.078;12.108;2022-09-27T12:58:35;10.30;99.90
37242;DHT22;23135;51.078;12.108;2022-09-27T13:01:32;10.50;99.90
37242;DHT22;23135;51.078;12.108;2022-09-27T13:11:47;12.90;99.90
37242;DHT22;23135;51.078;12.108;2022-09-27T13:14:26;13.30;99.90
37242;DHT22;23135;51.078;12.108;2022-09-27T13:16:53;13.60;99.90
37242;DHT22;23135;51.078;12.108;2022-09-27T13:19:38;13.90;99.90
37242;DHT22;23135;51.078;12.108;2022-09-27T13:22:34;14.10;99.90
37242;DHT22;23135;51.078;12.108;2022-09-27T13:24:55;14.20;99.90
37242;DHT22;23135;51.078;12.108;2022-09-27T13:29:46;13.60;99.90
37242;DHT22;23135;51.078;12.108;2022-09-27T13:32:19;13.20;99.90
37242;DHT22;23135;51.078;12.108;2022-09-27T13:45:48;10.70;99.90
37242;DHT22;23135;51.078;12.108;2022-09-27T13:48:18;10.40;99.90
37242;DHT22;23135;51.078;12.108;2022-09-27T13:50:48;10.10;99.90
37242;DHT22;23135;51.078;12.108;2022-09-27T13:53:21;9.90;99.90
37242;DHT22;23135;51.078;12.108;2022-09-27T13:55:49;9.70;99.90
37242;DHT22;23135;51.078;12.108;2022-09-27T14:00:49;10.10;99.90
37242;DHT22;23135;51.078;12.108;2022-09-27T14:03:20;10.40;99.90
37242;DHT22;23135;51.078;12.108;2022-09-27T14:05:56;10.60;99.90
37242;DHT22;23135;51.078;12.108;2022-09-27T14:08:39;10.90;99.90
37242;DHT22;23135;51.078;12.108;2022-09-27T14:11:19;11.20;99.90
37242;DHT22;23135;51.078;12.108;2022-09-27T14:13:47;11.40;99.90
37242;DHT22;23135;51.078;12.108;2022-09-27T14:16:15;11.60;99.90
37242;DHT22;23135;51.078;12.108;2022-09-27T14:18:49;11.80;99.90
37242;DHT22;23135;51.078;12.108;2022-09-27T14:21:29;11.90;99.90
37242;DHT22;23135;51.078;12.108;2022-09-27T14:26:46;11.90;99.90
37242;DHT22;23135;51.078;12.108;2022-09-27T14:29:17;11.70;99.90
37242;DHT22;23135;51.078;12.108;2022-09-27T14:31:43;11.50;99.90
37242;DHT22;23135;51.078;12.108;2022-09-27T14:34:12;11.40;99.90
37242;DHT22;23135;51.078;12.108;2022-09-27T14:36:38;11.40;99.90
37242;DHT22;23135;51.078;12.108;2022-09-27T14:39:31;11.30;99.90
37242;DHT22;23135;51.078;12.108;2022-09-27T14:42:01;11.20;99.90
37242;DHT22;23135;51.078;12.108;2022-09-27T14:44:27;11.20;99.90
37242;DHT22;23135;51.078;12.108;2022-09-27T14:47:18;11.20;99.90
37242;DHT22;23135;51.078;12.108;2022-09-27T14:49:51;11.20;99.90
37242;DHT22;23135;51.078;12.108;2022-09-27T14:52:25;11.20;99.90
37242;DHT22;23135;51.078;12.108;2022-09-27T14:54:56;11.00;99.90
37242;DHT22;23135;51.078;12.108;2022-09-27T14:57:23;11.10;99.90
37242;DHT22;23135;51.078;12.108;2022-09-27T14:59:48;11.10;99.90
37242;DHT22;23135;51.078;12.108;2022-09-27T15:02:18;11.10;99.90
37242;DHT22;23135;51.078;12.108;2022-09-27T15:04:46;11.10;99.90
37242;DHT22;23135;51.078;12.108;2022-09-27T15:07:13;11.20;99.90
37242;DHT22;23135;51.078;12.108;2022-09-27T15:09:42;11.20;99.90
37242;DHT22;23135;51.078;12.108;2022-09-27T15:12:12;11.30;99.90
37242;DHT22;23135;51.078;12.108;2022-09-27T15:14:40;11.40;99.90
37242;DHT22;23135;51.078;12.108;2022-09-27T15:17:15;11.60;99.90
37242;DHT22;23135;51.078;12.108;2022-09-27T15:19:54;11.60;99.90
37242;DHT22;23135;51.078;12.108;2022-09-27T15:22:41;11.70;99.90
37242;DHT22;23135;51.078;12.108;2022-09-27T15:30:38;12.20;99.90
37242;DHT22;23135;51.078;12.108;2022-09-27T15:33:15;12.40;99.90
37242;DHT22;23135;51.078;12.108;2022-09-27T15:35:53;12.40;99.90
37242;DHT22;23135;51.078;12.108;2022-09-27T15:38:28;12.30;99.90
37242;DHT22;23135;51.078;12.108;2022-09-27T15:41:07;12.30;99.90
37242;DHT22;23135;51.078;12.108;2022-09-27T15:43:34;12.30;99.90
37242;DHT22;23135;51.078;12.108;2022-09-27T15:46:03;12.20;99.90
37242;DHT22;23135;51.078;12.108;2022-09-27T15:48:31;12.20;99.90
37242;DHT22;23135;51.078;12.108;2022-09-27T15:50:58;12.20;99.90
37242;DHT22;23135;51.078;12.108;2022-09-27T15:55:59;12.00;99.90
37242;DHT22;23135;51.078;12.108;2022-09-27T15:58:25;11.90;99.90
37242;DHT22;23135;51.078;12.108;2022-09-27T16:00:56;11.70;99.90
37242;DHT22;23135;51.078;12.108;2022-09-27T16:03:23;11.60;99.90
37242;DHT22;23135;51.078;12.108;2022-09-27T16:05:50;11.60;99.90
37242;DHT22;23135;51.078;12.108;2022-09-27T16:08:15;11.50;99.90
37242;DHT22;23135;51.078;12.108;2022-09-27T16:10:44;11.40;99.90
37242;DHT22;23135;51.078;12.108;2022-09-27T16:13:11;11.40;99.90
37242;DHT22;23135;51.078;12.108;2022-09-27T16:15:36;11.30;99.90
37242;DHT22;23135;51.078;12.108;2022-09-27T16:18:02;11.30;99.90
37242;DHT22;23135;51.078;12.108;2022-09-27T16:20:28;11.20;99.90
37242;DHT22;23135;51.078;12.108;2022-09-27T16:22:54;11.20;99.90
37242;DHT22;23135;51.078;12.108;2022-09-27T16:25:21;11.10;99.90
37242;DHT22;23135;51.078;12.108;2022-09-27T16:27:47;11.00;99.90
37242;DHT22;23135;51.078;12.108;2022-09-27T16:30:14;11.00;99.90
37242;DHT22;23135;51.078;12.108;2022-09-27T16:32:44;11.00;99.90
37242;DHT22;23135;51.078;12.108;2022-09-27T16:35:11;11.00;99.90
37242;DHT22;23135;51.078;12.108;2022-09-27T16:37:37;11.00;99.90
37242;DHT22;23135;51.078;12.108;2022-09-27T16:40:04;10.90;99.90
37242;DHT22;23135;51.078;12.108;2022-09-27T16:42:31;10.80;99.90
37242;DHT22;23135;51.078;12.108;2022-09-27T16:44:57;10.80;99.90
37242;DHT22;23135;51.078;12.108;2022-09-27T16:47:22;10.80;99.90
37242;DHT22;23135;51.078;12.108;2022-09-27T16:49:48;10.70;99.90
37242;DHT22;23135;51.078;12.108;2022-09-27T16:52:32;10.70;99.90
37242;DHT22;23135;51.078;12.108;2022-09-27T16:54:59;10.60;99.90
37242;DHT22;23135;51.078;12.108;2022-09-27T16:57:25;10.50;99.90
37242;DHT22;23135;51.078;12.108;2022-09-27T16:59:54;10.50;99.90
37242;DHT22;23135;51.078;12.108;2022-09-27T17:02:23;10.40;99.90
37242;DHT22;23135;51.078;12.108;2022-09-27T17:04:49;10.40;99.90
37242;DHT22;23135;51.078;12.108;2022-09-27T17:07:15;10.40;99.90
37242;DHT22;23135;51.078;12.108;2022-09-27T17:09:40;10.40;99.90
37242;DHT22;23135;51.078;12.108;2022-09-27T17:12:06;10.40;99.90
37242;DHT22;23135;51.078;12.108;2022-09-27T17:14:32;10.40;99.90
37242;DHT22;23135;51.078;12.108;2022-09-27T17:16:57;10.40;99.90
37242;DHT22;23135;51.078;12.108;2022-09-27T17:19:23;10.40;99.90
37242;DHT22;23135;51.078;12.108;2022-09-27T17:21:49;10.30;99.90
37242;DHT22;23135;51.078;12.108;2022-09-27T17:24:15;10.30;99.90
37242;DHT22;23135;51.078;12.108;2022-09-27T17:26:42;10.20;99.90
37242;DHT22;23135;51.078;12.108;2022-09-27T17:29:11;10.20;99.90
37242;DHT22;23135;51.078;12.108;2022-09-27T17:31:38;10.10;99.90
37242;DHT22;23135;51.078;12.108;2022-09-27T17:34:06;10.00;99.90
37242;DHT22;23135;51.078;12.108;2022-09-27T17:36:33;10.00;99.90
37242;DHT22;23135;51.078;12.108;2022-09-27T17:39:00;9.90;99.90
37242;DHT22;23135;51.078;12.108;2022-09-27T17:41:27;9.90;99.90
37242;DHT22;23135;51.078;12.108;2022-09-27T17:43:57;9.90;99.90
37242;DHT22;23135;51.078;12.108;2022-09-27T17:46:29;9.80;99.90
37242;DHT22;23135;51.078;12.108;2022-09-27T17:48:55;9.80;99.90
37242;DHT22;23135;51.078;12.108;2022-09-27T17:51:50;9.80;99.90
37242;DHT22;23135;51.078;12.108;2022-09-27T17:54:17;9.70;99.90
37242;DHT22;23135;51.078;12.108;2022-09-27T17:56:44;9.70;99.90
37242;DHT22;23135;51.078;12.108;2022-09-27T17:59:11;9.70;99.90
37242;DHT22;23135;51.078;12.108;2022-09-27T18:01:37;9.60;99.90
37242;DHT22;23135;51.078;12.108;2022-09-27T18:04:05;9.60;99.90